メインページ
METAR-TAF:

METAR-TAF

空港 :

大阪国際空港

大阪, 日本

緯度: 34-47N, 経度: 135-27E, 海抜: 12m

現時点の気象観測

当レポートは1時間1分前の22:00(UTC)に作成
北西の風 3kt
気温 13°C
湿度 67%
気圧 1018 hPa
視程10km以上
高度3000ftの雲はほとんどない
高度7000ftの千切れ雲あり

METAR: RJOO 162200Z 32003KT 9999 FEW030 BKN070 13/07 Q1018 RMK 1CU030 6AC070 A3006

時間: 08:01 (23:01 UTC)

予報

当レポートは5時間55分前の17:06(UTC)に作成
予報は16日の 18時(UTC)から 18日の 00時(UTC)まで有効
北西の風 5kt
視程10km以上
高度2500ftの雲はほとんどない
高度4500ftの千切れ雲あり

TAF: RJOO 161706Z 1618/1800 32005KT 9999 FEW025 BKN045

4,000以上の空港の気象観測と天気予報(METAR報とTAF報)

利用可能な観測所は地図上に黄色い丸と赤い丸で示す。

丸の上にカーソルを重ねると観測所名を参照できる。

次にクリックすると気象観測と天気予報を参照できる。

マップの切り替え:黒色「×」印の緑ボタンをクリックして拡大、「-」印の緑ボタンをクリックして縮小、緑色の三角印をクリックして隣りの地図に切り替え


METAR-TAF: